createdAt,value
2023-03-29T00:00:20.649Z,588.00
2023-03-29T00:01:35.014Z,588.00
2023-03-29T00:02:21.691Z,587.00
2023-03-29T00:03:20.719Z,590.00
2023-03-29T00:04:20.722Z,593.00
2023-03-29T00:05:20.642Z,594.00
2023-03-29T00:06:20.641Z,589.00
2023-03-29T00:07:20.645Z,588.00
2023-03-29T00:08:20.644Z,589.00
2023-03-29T00:10:20.639Z,591.00
2023-03-29T00:11:20.642Z,591.00
2023-03-29T00:12:20.639Z,591.00
2023-03-29T00:13:20.649Z,590.00
2023-03-29T00:14:20.655Z,589.00
2023-03-29T00:15:20.671Z,589.00
2023-03-29T00:16:20.722Z,589.00
2023-03-29T00:17:20.668Z,589.00
2023-03-29T00:18:20.670Z,588.00
2023-03-29T00:19:20.654Z,587.00
2023-03-29T00:20:20.653Z,586.00
2023-03-29T00:24:20.637Z,585.00
2023-03-29T00:25:20.652Z,583.00
2023-03-29T00:27:20.634Z,579.00
2023-03-29T00:28:20.630Z,581.00
2023-03-29T00:30:20.627Z,580.00
2023-03-29T00:31:20.654Z,578.00
2023-03-29T00:35:20.677Z,574.00
2023-03-29T00:36:20.614Z,574.00
2023-03-29T00:37:20.595Z,574.00
2023-03-29T00:38:20.592Z,573.00
2023-03-29T00:40:20.593Z,573.00
2023-03-29T00:41:20.592Z,574.00
2023-03-29T00:42:20.578Z,575.00
2023-03-29T00:44:20.584Z,574.00
2023-03-29T00:47:20.578Z,568.00
2023-03-29T00:49:20.568Z,571.00
2023-03-29T00:50:20.595Z,569.00
2023-03-29T00:51:20.560Z,569.00
2023-03-29T00:52:20.560Z,570.00
2023-03-29T00:53:20.547Z,572.00
2023-03-29T00:54:20.575Z,572.00
2023-03-29T00:58:20.583Z,568.00
2023-03-29T00:59:20.556Z,569.00
2023-03-29T01:02:20.542Z,569.00
2023-03-29T01:03:20.671Z,567.00
2023-03-29T01:04:20.561Z,566.00
2023-03-29T01:05:20.540Z,566.00
2023-03-29T01:06:20.580Z,566.00
2023-03-29T01:09:20.560Z,562.00
2023-03-29T01:10:20.556Z,563.00
2023-03-29T01:12:20.575Z,562.00
2023-03-29T01:14:20.564Z,567.00
2023-03-29T01:15:20.573Z,569.00
2023-03-29T01:16:20.610Z,569.00
2023-03-29T01:17:20.581Z,569.00
2023-03-29T01:18:20.571Z,569.00
2023-03-29T01:19:20.568Z,568.00
2023-03-29T01:20:20.567Z,569.00
2023-03-29T01:23:20.563Z,567.00
2023-03-29T01:24:20.574Z,566.00
2023-03-29T01:25:20.590Z,567.00
2023-03-29T01:26:20.579Z,568.00
2023-03-29T01:27:20.582Z,565.00
2023-03-29T01:28:20.606Z,565.00
2023-03-29T01:29:20.580Z,566.00
2023-03-29T01:30:20.572Z,564.00
2023-03-29T01:31:20.633Z,563.00
2023-03-29T01:32:20.595Z,561.00
2023-03-29T01:35:20.614Z,561.00
2023-03-29T01:36:20.621Z,562.00
2023-03-29T01:39:20.571Z,559.00
2023-03-29T01:40:20.624Z,556.00
2023-03-29T01:41:20.568Z,557.00
2023-03-29T01:42:20.585Z,556.00
2023-03-29T01:44:20.578Z,554.00
2023-03-29T01:45:20.583Z,554.00
2023-03-29T01:46:20.603Z,555.00
2023-03-29T01:47:20.668Z,556.00
2023-03-29T01:48:20.567Z,554.00
2023-03-29T01:51:20.560Z,554.00
2023-03-29T01:52:20.567Z,555.00
2023-03-29T01:55:20.566Z,555.00
2023-03-29T01:56:20.550Z,553.00
2023-03-29T01:57:20.583Z,554.00
2023-03-29T02:01:20.588Z,554.00
2023-03-29T02:02:20.599Z,553.00
2023-03-29T02:05:20.530Z,552.00
2023-03-29T02:06:20.538Z,553.00
2023-03-29T02:07:20.545Z,553.00
2023-03-29T02:11:20.537Z,553.00
2023-03-29T02:12:20.540Z,553.00
2023-03-29T02:13:20.547Z,552.00
2023-03-29T02:15:20.542Z,552.00
2023-03-29T02:16:20.613Z,551.00
2023-03-29T02:19:20.533Z,548.00
2023-03-29T02:20:20.535Z,547.00
2023-03-29T02:21:20.557Z,545.00
2023-03-29T02:22:20.521Z,542.00
2023-03-29T02:23:20.522Z,540.00
2023-03-29T02:24:20.532Z,542.00
2023-03-29T02:27:20.549Z,543.00
2023-03-29T02:28:20.556Z,542.00
2023-03-29T02:31:20.604Z,545.00
2023-03-29T02:32:20.583Z,547.00
2023-03-29T02:33:20.574Z,548.00
2023-03-29T02:34:20.583Z,548.00
2023-03-29T02:39:20.582Z,542.00
2023-03-29T02:40:20.608Z,540.00
2023-03-29T02:41:20.599Z,540.00
2023-03-29T02:42:20.666Z,539.00
2023-03-29T02:43:20.589Z,538.00
2023-03-29T02:44:20.618Z,536.00
2023-03-29T02:45:20.594Z,535.00
2023-03-29T02:46:20.634Z,534.00
2023-03-29T02:48:20.632Z,532.00
2023-03-29T02:49:20.613Z,532.00
2023-03-29T02:50:20.638Z,534.00
2023-03-29T02:51:20.637Z,534.00
2023-03-29T02:52:20.644Z,533.00
2023-03-29T02:53:20.645Z,537.00
2023-03-29T02:55:20.646Z,538.00
2023-03-29T02:56:20.653Z,537.00
2023-03-29T02:59:20.673Z,534.00
2023-03-29T03:00:20.661Z,534.00
2023-03-29T03:01:20.784Z,535.00
2023-03-29T03:02:20.705Z,532.00
2023-03-29T03:03:20.774Z,529.00
2023-03-29T03:04:20.687Z,529.00
2023-03-29T03:05:20.664Z,530.00
2023-03-29T03:06:20.673Z,534.00
2023-03-29T03:07:20.670Z,536.00
2023-03-29T03:08:20.681Z,532.00
2023-03-29T03:09:20.699Z,531.00
2023-03-29T03:10:20.698Z,531.00
2023-03-29T03:12:20.672Z,532.00
2023-03-29T03:13:20.685Z,533.00
2023-03-29T03:14:20.678Z,532.00
2023-03-29T03:15:20.689Z,533.00
2023-03-29T03:16:20.730Z,534.00
2023-03-29T03:19:20.680Z,534.00
2023-03-29T03:20:20.688Z,534.00
2023-03-29T03:24:20.675Z,535.00
2023-03-29T03:26:20.675Z,531.00
2023-03-29T03:27:20.699Z,531.00
2023-03-29T03:28:20.693Z,529.00
2023-03-29T03:29:20.714Z,530.00
2023-03-29T03:30:20.700Z,531.00
2023-03-29T03:32:20.724Z,531.00
2023-03-29T03:33:20.714Z,531.00
2023-03-29T03:36:20.730Z,526.00
2023-03-29T03:40:20.788Z,524.00
2023-03-29T03:41:20.747Z,528.00
2023-03-29T03:42:20.748Z,528.00
2023-03-29T03:43:20.746Z,528.00
2023-03-29T03:44:20.767Z,528.00
2023-03-29T03:45:20.776Z,529.00
2023-03-29T03:46:20.787Z,531.00
2023-03-29T03:47:20.765Z,529.00
2023-03-29T03:48:20.775Z,529.00
2023-03-29T03:49:20.794Z,528.00
2023-03-29T03:50:20.808Z,524.00
2023-03-29T03:53:20.797Z,525.00
2023-03-29T03:54:20.807Z,528.00
2023-03-29T03:55:20.811Z,526.00
2023-03-29T03:57:20.854Z,523.00
2023-03-29T03:58:20.811Z,524.00
2023-03-29T03:59:20.808Z,525.00
2023-03-29T04:00:20.819Z,523.00
2023-03-29T04:01:20.851Z,521.00
2023-03-29T04:02:20.876Z,521.00
2023-03-29T04:06:20.828Z,517.00
2023-03-29T04:07:20.829Z,516.00
2023-03-29T04:08:20.827Z,516.00
2023-03-29T04:09:20.837Z,517.00
2023-03-29T04:10:20.867Z,518.00
2023-03-29T04:15:20.842Z,519.00
2023-03-29T04:16:20.892Z,520.00
2023-03-29T04:17:20.850Z,520.00
2023-03-29T04:18:20.964Z,520.00
2023-03-29T04:19:20.848Z,519.00
2023-03-29T04:20:20.863Z,516.00
2023-03-29T04:21:21.464Z,512.00
2023-03-29T04:24:20.892Z,511.00
2023-03-29T04:26:20.902Z,510.00
2023-03-29T04:27:20.898Z,508.00
2023-03-29T04:28:20.896Z,511.00
2023-03-29T04:29:20.907Z,513.00
2023-03-29T04:30:20.903Z,511.00
2023-03-29T04:31:20.939Z,511.00
2023-03-29T04:32:20.916Z,510.00
2023-03-29T04:33:20.921Z,511.00
2023-03-29T04:34:20.955Z,511.00
2023-03-29T04:37:20.944Z,508.00
2023-03-29T04:38:20.949Z,509.00
2023-03-29T04:39:20.954Z,507.00
2023-03-29T04:40:20.965Z,505.00
2023-03-29T04:41:20.968Z,506.00
2023-03-29T04:42:20.989Z,505.00
2023-03-29T04:43:21.002Z,504.00
2023-03-29T04:44:20.994Z,503.00
2023-03-29T04:45:21.067Z,502.00
2023-03-29T04:46:21.049Z,500.00
2023-03-29T04:47:21.007Z,500.00
2023-03-29T04:48:21.053Z,502.00
2023-03-29T04:49:21.045Z,501.00
2023-03-29T04:50:21.045Z,501.00
2023-03-29T04:51:21.067Z,499.00
2023-03-29T04:52:23.196Z,499.00
2023-03-29T04:53:21.080Z,500.00
2023-03-29T04:54:21.100Z,501.00
2023-03-29T04:55:21.133Z,501.00
2023-03-29T04:56:21.114Z,501.00
2023-03-29T04:57:21.147Z,500.00
2023-03-29T04:58:23.689Z,502.00
2023-03-29T04:59:21.126Z,501.00
2023-03-29T05:00:21.151Z,500.00
2023-03-29T05:01:21.180Z,499.00
2023-03-29T05:02:21.142Z,500.00
2023-03-29T05:03:21.170Z,501.00
2023-03-29T05:04:21.185Z,501.00
2023-03-29T05:05:21.178Z,499.00
2023-03-29T05:06:21.175Z,496.00
2023-03-29T05:07:21.172Z,495.00
2023-03-29T05:08:21.176Z,493.00
2023-03-29T05:09:21.186Z,489.00
2023-03-29T05:10:21.184Z,490.00
2023-03-29T05:11:21.211Z,490.00
2023-03-29T05:12:21.202Z,490.00
2023-03-29T05:13:21.217Z,486.00
2023-03-29T05:14:21.219Z,484.00
2023-03-29T05:15:21.274Z,483.00
2023-03-29T05:16:21.287Z,483.00
2023-03-29T05:17:21.255Z,483.00
2023-03-29T05:18:21.263Z,482.00
2023-03-29T05:19:21.274Z,480.00
2023-03-29T05:20:21.293Z,478.00
2023-03-29T05:21:21.293Z,477.00
2023-03-29T05:22:21.306Z,478.00
2023-03-29T05:24:21.325Z,478.00
2023-03-29T05:27:21.339Z,471.00
2023-03-29T05:28:21.344Z,468.00
2023-03-29T05:29:21.353Z,467.00
2023-03-29T05:30:21.357Z,469.00
2023-03-29T05:31:21.409Z,469.00
2023-03-29T05:35:21.392Z,482.00
2023-03-29T05:36:21.419Z,491.00
2023-03-29T05:37:21.418Z,521.00
2023-03-29T05:38:21.445Z,528.00
2023-03-29T05:39:21.493Z,575.00
2023-03-29T05:41:21.441Z,576.00
2023-03-29T05:42:21.446Z,585.00
2023-03-29T05:46:21.508Z,751.00
2023-03-29T05:47:21.444Z,769.00
2023-03-29T05:48:21.506Z,780.00
2023-03-29T05:50:21.484Z,861.00
2023-03-29T05:54:21.446Z,898.00
2023-03-29T05:55:21.792Z,908.00
2023-03-29T05:58:21.492Z,936.00
2023-03-29T06:01:21.433Z,975.00
2023-03-29T06:02:21.529Z,988.00
2023-03-29T06:03:22.086Z,1002.00
2023-03-29T06:05:22.400Z,1030.00
2023-03-29T06:07:21.410Z,1048.00
2023-03-29T06:08:21.476Z,1060.00
2023-03-29T06:11:21.453Z,1113.00
2023-03-29T06:12:21.471Z,1124.00
2023-03-29T06:15:21.440Z,1164.00
2023-03-29T06:16:21.427Z,1168.00
2023-03-29T06:17:21.443Z,1181.00
2023-03-29T06:18:21.397Z,1218.00
2023-03-29T06:19:21.528Z,1142.00
2023-03-29T06:20:21.398Z,1168.00
2023-03-29T06:21:21.404Z,1182.00
2023-03-29T06:22:21.378Z,1192.00
2023-03-29T06:23:21.385Z,1201.00
2023-03-29T06:24:21.393Z,1206.00
2023-03-29T06:27:21.390Z,1230.00
2023-03-29T06:29:21.368Z,1267.00
2023-03-29T06:30:21.374Z,1270.00
2023-03-29T06:31:21.493Z,1272.00
2023-03-29T06:32:21.364Z,1271.00
2023-03-29T06:36:21.415Z,1304.00
2023-03-29T06:37:22.294Z,1318.00
2023-03-29T06:38:21.357Z,1330.00
2023-03-29T06:39:21.411Z,1330.00
2023-03-29T06:41:21.321Z,1281.00
2023-03-29T06:42:21.911Z,1285.00
2023-03-29T06:46:21.374Z,1225.00
2023-03-29T06:47:21.303Z,1215.00
2023-03-29T06:48:21.289Z,1215.00
2023-03-29T06:50:21.258Z,1177.00
2023-03-29T06:51:23.333Z,1184.00
2023-03-29T06:52:21.322Z,1177.00
2023-03-29T06:56:21.228Z,1227.00
2023-03-29T06:59:21.203Z,1253.00
2023-03-29T07:00:21.190Z,1247.00
2023-03-29T07:02:21.190Z,1248.00
2023-03-29T07:03:21.186Z,1232.00
2023-03-29T07:04:21.213Z,1184.00
2023-03-29T07:05:21.270Z,1152.00
2023-03-29T07:09:21.154Z,1197.00
2023-03-29T07:10:21.162Z,1190.00
2023-03-29T07:13:21.169Z,1173.00
2023-03-29T07:14:21.161Z,1120.00
2023-03-29T07:15:21.159Z,1123.00
2023-03-29T07:16:21.198Z,1117.00
2023-03-29T07:17:21.341Z,1113.00
2023-03-29T07:18:21.159Z,1073.00
2023-03-29T07:19:21.147Z,1043.00
2023-03-29T07:20:21.194Z,1049.00
2023-03-29T07:24:21.219Z,1098.00
2023-03-29T07:25:21.819Z,1098.00
2023-03-29T07:26:28.920Z,1095.00
2023-03-29T07:27:22.124Z,1099.00
2023-03-29T07:28:21.109Z,1101.00
2023-03-29T07:29:21.149Z,1098.00
2023-03-29T07:30:21.279Z,1110.00
2023-03-29T07:31:21.115Z,1117.00
2023-03-29T07:33:21.247Z,1119.00
2023-03-29T07:35:21.174Z,1143.00
2023-03-29T07:38:21.120Z,983.00
2023-03-29T07:39:21.089Z,966.00
2023-03-29T07:40:21.127Z,928.00
2023-03-29T07:41:21.150Z,929.00
2023-03-29T07:44:21.093Z,970.00
2023-03-29T07:48:21.031Z,1027.00
2023-03-29T07:49:22.126Z,1031.00
2023-03-29T07:51:21.013Z,1074.00
2023-03-29T07:52:21.028Z,1083.00
2023-03-29T07:57:21.850Z,1131.00
2023-03-29T07:58:20.950Z,1135.00
2023-03-29T07:59:20.979Z,1133.00
2023-03-29T08:00:21.434Z,1137.00
2023-03-29T08:01:21.016Z,1143.00
2023-03-29T08:02:21.045Z,1150.00
2023-03-29T08:03:21.016Z,1154.00
2023-03-29T08:06:20.884Z,1168.00
2023-03-29T08:07:20.898Z,1160.00
2023-03-29T08:08:21.002Z,1161.00
2023-03-29T08:10:20.938Z,1067.00
2023-03-29T08:11:20.894Z,891.00
2023-03-29T08:12:22.507Z,830.00
2023-03-29T08:13:20.866Z,855.00
2023-03-29T08:14:20.871Z,791.00
2023-03-29T08:15:20.906Z,800.00
2023-03-29T08:19:20.875Z,670.00
2023-03-29T08:20:20.887Z,681.00
2023-03-29T08:21:20.880Z,638.00
2023-03-29T08:22:20.881Z,627.00
2023-03-29T08:23:20.934Z,657.00
2023-03-29T08:24:21.189Z,662.00
2023-03-29T08:28:20.960Z,592.00
2023-03-29T08:29:20.965Z,605.00
2023-03-29T08:30:21.170Z,611.00
2023-03-29T08:32:20.976Z,691.00
2023-03-29T08:33:21.033Z,696.00
2023-03-29T08:34:20.971Z,610.00
2023-03-29T08:35:21.061Z,481.00
2023-03-29T08:40:21.084Z,407.00
2023-03-29T08:41:21.170Z,404.00
2023-03-29T08:43:21.242Z,416.00
2023-03-29T08:45:21.378Z,413.00
2023-03-29T08:47:21.331Z,582.00
2023-03-29T08:48:21.391Z,509.00
2023-03-29T08:49:21.376Z,617.00
2023-03-29T08:50:21.419Z,628.00
2023-03-29T08:53:21.497Z,628.00
2023-03-29T08:54:21.541Z,581.00
2023-03-29T08:56:21.568Z,561.00
2023-03-29T08:57:21.667Z,560.00
2023-03-29T08:58:21.671Z,577.00
2023-03-29T09:00:21.672Z,592.00
2023-03-29T09:01:21.730Z,601.00
2023-03-29T09:02:21.832Z,634.00
2023-03-29T09:03:21.936Z,591.00
2023-03-29T09:06:21.817Z,536.00
2023-03-29T09:07:23.443Z,510.00
2023-03-29T09:08:21.874Z,496.00
2023-03-29T09:09:21.985Z,494.00
2023-03-29T09:10:21.975Z,492.00
2023-03-29T09:12:21.981Z,459.00
2023-03-29T09:13:22.033Z,447.00
2023-03-29T09:14:22.037Z,436.00
2023-03-29T09:15:22.111Z,434.00
2023-03-29T09:16:22.160Z,427.00
2023-03-29T09:17:22.126Z,420.00
2023-03-29T09:18:22.181Z,413.00
2023-03-29T09:23:22.281Z,394.00
2023-03-29T09:24:22.289Z,387.00
2023-03-29T09:25:22.326Z,383.00
2023-03-29T09:26:22.365Z,380.00
2023-03-29T09:27:22.361Z,382.00
2023-03-29T09:28:22.377Z,381.00
2023-03-29T09:29:22.400Z,383.00
2023-03-29T09:30:22.556Z,379.00
2023-03-29T09:33:22.474Z,370.00
2023-03-29T09:34:22.541Z,368.00
2023-03-29T09:36:22.578Z,365.00
2023-03-29T09:37:22.645Z,362.00
2023-03-29T09:38:22.614Z,359.00
2023-03-29T09:40:22.659Z,366.00
2023-03-29T09:41:22.714Z,445.00
2023-03-29T09:42:22.756Z,535.00
2023-03-29T09:43:22.798Z,586.00
2023-03-29T09:44:30.706Z,694.00
2023-03-29T09:45:23.843Z,691.00
2023-03-29T09:46:23.101Z,714.00
2023-03-29T09:47:22.820Z,726.00
2023-03-29T09:48:22.846Z,737.00
2023-03-29T09:49:22.846Z,747.00
2023-03-29T09:52:23.389Z,765.00
2023-03-29T09:56:22.900Z,751.00
2023-03-29T09:57:22.965Z,735.00
2023-03-29T09:58:22.939Z,716.00
2023-03-29T10:01:22.962Z,724.00
2023-03-29T10:02:22.954Z,685.00
2023-03-29T10:03:22.949Z,692.00
2023-03-29T10:04:22.967Z,695.00
2023-03-29T10:06:22.968Z,702.00
2023-03-29T10:07:22.975Z,710.00
2023-03-29T10:08:23.004Z,727.00
2023-03-29T10:09:23.024Z,747.00
2023-03-29T10:13:22.998Z,789.00
2023-03-29T10:14:23.022Z,789.00
2023-03-29T10:15:29.582Z,789.00
2023-03-29T10:16:24.063Z,797.00
2023-03-29T10:17:23.169Z,798.00
2023-03-29T10:18:23.053Z,797.00
2023-03-29T10:19:23.069Z,797.00
2023-03-29T10:20:23.171Z,764.00
2023-03-29T10:21:23.080Z,773.00
2023-03-29T10:22:23.144Z,768.00
2023-03-29T10:23:23.095Z,770.00
2023-03-29T10:26:23.109Z,678.00
2023-03-29T10:27:23.264Z,671.00
2023-03-29T10:29:23.137Z,598.00
2023-03-29T10:30:23.171Z,587.00
2023-03-29T10:31:23.249Z,579.00
2023-03-29T10:32:23.361Z,591.00
2023-03-29T10:34:23.184Z,657.00
2023-03-29T10:35:23.250Z,658.00
2023-03-29T10:38:23.222Z,666.00
2023-03-29T10:39:23.231Z,687.00
2023-03-29T10:41:23.250Z,696.00
2023-03-29T10:42:23.942Z,697.00
2023-03-29T10:43:23.313Z,636.00
2023-03-29T10:44:23.261Z,637.00
2023-03-29T10:45:23.312Z,635.00
2023-03-29T10:46:23.308Z,625.00
2023-03-29T10:47:23.352Z,614.00
2023-03-29T10:48:23.368Z,606.00
2023-03-29T10:52:23.340Z,721.00
2023-03-29T10:54:23.351Z,733.00
2023-03-29T10:55:23.352Z,771.00
2023-03-29T10:56:23.355Z,807.00
2023-03-29T10:57:23.479Z,806.00
2023-03-29T10:58:23.392Z,808.00
2023-03-29T11:03:23.494Z,842.00
2023-03-29T11:04:23.402Z,866.00
2023-03-29T11:05:23.381Z,872.00
2023-03-29T11:06:23.391Z,880.00
2023-03-29T11:08:23.381Z,899.00
2023-03-29T11:09:23.364Z,914.00
2023-03-29T11:10:23.365Z,927.00
2023-03-29T11:12:23.352Z,932.00
2023-03-29T11:14:23.346Z,878.00
2023-03-29T11:15:23.396Z,856.00
2023-03-29T11:16:23.401Z,842.00
2023-03-29T11:17:23.505Z,807.00
2023-03-29T11:18:23.361Z,770.00
2023-03-29T11:20:23.353Z,737.00
2023-03-29T11:21:23.516Z,743.00
2023-03-29T11:23:23.370Z,748.00
2023-03-29T11:24:23.322Z,701.00
2023-03-29T11:25:23.337Z,754.00
2023-03-29T11:27:23.329Z,815.00
2023-03-29T11:28:23.360Z,812.00
2023-03-29T11:30:23.341Z,685.00
2023-03-29T11:32:23.347Z,770.00
2023-03-29T11:33:23.330Z,732.00
2023-03-29T11:35:23.643Z,719.00
2023-03-29T11:36:23.692Z,717.00
2023-03-29T11:37:23.334Z,715.00
2023-03-29T11:38:23.342Z,722.00
2023-03-29T11:39:23.333Z,727.00
2023-03-29T11:40:23.375Z,729.00
2023-03-29T11:41:23.354Z,729.00
2023-03-29T11:42:23.365Z,727.00
2023-03-29T11:43:23.358Z,725.00
2023-03-29T11:45:23.337Z,715.00
2023-03-29T11:46:23.360Z,711.00
2023-03-29T11:49:23.336Z,698.00
2023-03-29T11:51:23.339Z,691.00
2023-03-29T11:52:23.329Z,684.00
2023-03-29T11:53:23.348Z,679.00
2023-03-29T11:59:23.330Z,676.00
2023-03-29T12:00:23.350Z,675.00
2023-03-29T12:01:23.372Z,672.00
2023-03-29T12:02:23.407Z,671.00
2023-03-29T12:03:23.598Z,672.00
2023-03-29T12:04:23.382Z,670.00
2023-03-29T12:05:23.348Z,669.00
2023-03-29T12:10:23.370Z,659.00
2023-03-29T12:12:23.398Z,657.00
2023-03-29T12:13:23.360Z,655.00
2023-03-29T12:14:24.047Z,656.00
2023-03-29T12:15:23.343Z,653.00
2023-03-29T12:16:23.391Z,645.00
2023-03-29T12:17:23.397Z,644.00
2023-03-29T12:18:23.343Z,643.00
2023-03-29T12:19:23.372Z,640.00
2023-03-29T12:22:23.339Z,631.00
2023-03-29T12:23:23.342Z,627.00
2023-03-29T12:25:23.490Z,623.00
2023-03-29T12:26:23.333Z,627.00
2023-03-29T12:29:23.377Z,621.00
2023-03-29T12:30:23.343Z,626.00
2023-03-29T12:31:23.420Z,622.00
2023-03-29T12:32:23.365Z,620.00
2023-03-29T12:33:23.344Z,616.00
2023-03-29T12:34:23.356Z,617.00
2023-03-29T12:35:23.348Z,616.00
2023-03-29T12:36:23.351Z,614.00
2023-03-29T12:37:23.345Z,614.00
2023-03-29T12:38:23.361Z,616.00
2023-03-29T12:42:23.361Z,617.00
2023-03-29T12:43:23.360Z,622.00
2023-03-29T12:44:23.367Z,635.00
2023-03-29T12:45:23.364Z,704.00
2023-03-29T12:47:34.715Z,765.00
2023-03-29T12:48:34.636Z,760.00
2023-03-29T12:49:34.628Z,762.00
2023-03-29T12:50:34.593Z,765.00
2023-03-29T12:51:34.624Z,758.00
2023-03-29T12:52:34.574Z,756.00
2023-03-29T12:53:34.552Z,751.00
2023-03-29T12:54:34.513Z,758.00
2023-03-29T12:55:34.473Z,749.00
2023-03-29T12:56:34.471Z,742.00
2023-03-29T12:57:34.437Z,746.00
2023-03-29T12:58:34.410Z,788.00
2023-03-29T12:59:34.388Z,763.00
2023-03-29T13:00:34.343Z,778.00
2023-03-29T13:01:34.498Z,775.00
2023-03-29T13:02:34.388Z,775.00
2023-03-29T13:03:34.255Z,771.00
2023-03-29T13:04:34.248Z,768.00
2023-03-29T13:05:34.292Z,762.00
2023-03-29T13:06:34.190Z,762.00
2023-03-29T13:07:34.185Z,783.00
2023-03-29T13:08:34.149Z,784.00
2023-03-29T13:09:34.199Z,816.00
2023-03-29T13:10:34.117Z,823.00
2023-03-29T13:11:34.074Z,824.00
2023-03-29T13:12:34.055Z,821.00
2023-03-29T13:13:34.035Z,823.00
2023-03-29T13:14:33.997Z,819.00
2023-03-29T13:15:34.037Z,816.00
2023-03-29T13:16:34.129Z,815.00
2023-03-29T13:17:33.962Z,827.00
2023-03-29T13:18:33.937Z,829.00
2023-03-29T13:19:33.876Z,823.00
2023-03-29T13:20:33.838Z,822.00
2023-03-29T13:21:33.811Z,820.00
2023-03-29T13:22:33.780Z,813.00
2023-03-29T13:23:33.770Z,802.00
2023-03-29T13:24:33.736Z,796.00
2023-03-29T13:25:33.714Z,791.00
2023-03-29T13:26:33.670Z,782.00
2023-03-29T13:27:33.643Z,778.00
2023-03-29T13:28:33.629Z,774.00
2023-03-29T13:29:33.655Z,770.00
2023-03-29T13:30:33.684Z,763.00
2023-03-29T13:31:33.770Z,760.00
2023-03-29T13:32:33.773Z,755.00
2023-03-29T13:33:33.803Z,751.00
2023-03-29T13:34:33.746Z,749.00
2023-03-29T13:35:33.802Z,747.00
2023-03-29T13:36:33.790Z,746.00
2023-03-29T13:37:33.831Z,744.00
2023-03-29T13:38:33.865Z,741.00
2023-03-29T13:39:33.881Z,738.00
2023-03-29T13:40:33.950Z,736.00
2023-03-29T13:41:33.925Z,732.00
2023-03-29T13:42:33.955Z,732.00
2023-03-29T13:43:33.966Z,729.00
2023-03-29T13:44:33.975Z,730.00
2023-03-29T13:45:33.994Z,730.00
2023-03-29T13:46:34.027Z,725.00
2023-03-29T13:47:34.100Z,722.00
2023-03-29T13:48:34.084Z,718.00
2023-03-29T13:49:34.057Z,718.00
2023-03-29T13:50:34.075Z,719.00
2023-03-29T13:51:34.072Z,720.00
2023-03-29T13:52:34.089Z,719.00
2023-03-29T13:53:34.096Z,715.00
2023-03-29T13:54:34.128Z,712.00
2023-03-29T13:55:36.115Z,704.00
2023-03-29T13:56:34.131Z,696.00
2023-03-29T13:57:34.097Z,697.00
2023-03-29T13:58:34.090Z,696.00
2023-03-29T13:59:34.080Z,695.00
2023-03-29T14:00:34.072Z,694.00
2023-03-29T14:01:34.037Z,696.00
2023-03-29T14:02:34.052Z,698.00
2023-03-29T14:03:33.939Z,695.00
2023-03-29T14:04:33.929Z,693.00
2023-03-29T14:05:33.900Z,694.00
2023-03-29T14:06:33.877Z,689.00
2023-03-29T14:07:33.878Z,687.00
2023-03-29T14:08:35.906Z,681.00
2023-03-29T14:09:33.800Z,680.00
2023-03-29T14:10:33.784Z,677.00
2023-03-29T14:11:33.749Z,675.00
2023-03-29T14:12:33.758Z,675.00
2023-03-29T14:13:33.717Z,676.00
2023-03-29T14:14:33.672Z,674.00
2023-03-29T14:15:33.652Z,671.00
2023-03-29T14:16:33.685Z,670.00
2023-03-29T14:17:33.631Z,668.00
2023-03-29T14:18:33.587Z,667.00
2023-03-29T14:19:33.612Z,668.00
2023-03-29T14:20:33.548Z,669.00
2023-03-29T14:21:33.538Z,669.00
2023-03-29T14:22:33.521Z,666.00
2023-03-29T14:23:33.542Z,665.00
2023-03-29T14:24:33.563Z,669.00
2023-03-29T14:25:33.647Z,667.00
2023-03-29T14:26:33.639Z,668.00
2023-03-29T14:27:33.652Z,669.00
2023-03-29T14:28:33.710Z,667.00
2023-03-29T14:29:33.709Z,665.00
2023-03-29T14:30:33.748Z,663.00
2023-03-29T14:31:33.823Z,663.00
2023-03-29T14:32:33.856Z,662.00
2023-03-29T14:33:33.850Z,658.00
2023-03-29T14:34:33.879Z,656.00
2023-03-29T14:35:34.052Z,655.00
2023-03-29T14:36:34.182Z,651.00
2023-03-29T14:37:33.983Z,651.00
2023-03-29T14:38:34.020Z,650.00
2023-03-29T14:39:34.044Z,650.00
2023-03-29T14:40:34.100Z,650.00
2023-03-29T14:41:34.131Z,648.00
2023-03-29T14:42:34.152Z,647.00
2023-03-29T14:43:34.213Z,644.00
2023-03-29T14:44:34.262Z,641.00
2023-03-29T14:45:34.258Z,642.00
2023-03-29T14:46:34.336Z,640.00
2023-03-29T14:47:34.375Z,638.00
2023-03-29T14:48:34.320Z,635.00
2023-03-29T14:49:34.311Z,633.00
2023-03-29T14:50:34.366Z,630.00
2023-03-29T14:51:34.250Z,632.00
2023-03-29T14:52:34.239Z,629.00
2023-03-29T14:53:34.228Z,627.00
2023-03-29T14:54:34.225Z,627.00
2023-03-29T14:55:34.174Z,624.00
2023-03-29T14:56:34.145Z,621.00
2023-03-29T14:57:34.136Z,623.00
2023-03-29T14:58:34.173Z,625.00
2023-03-29T14:59:34.197Z,627.00
2023-03-29T15:00:34.237Z,625.00
2023-03-29T15:01:34.268Z,623.00
2023-03-29T15:02:34.359Z,621.00
2023-03-29T15:03:34.441Z,620.00
2023-03-29T15:04:34.369Z,622.00
2023-03-29T15:05:34.390Z,623.00
2023-03-29T15:06:34.421Z,625.00
2023-03-29T15:07:34.445Z,623.00
2023-03-29T15:08:34.491Z,622.00
2023-03-29T15:09:34.551Z,619.00
2023-03-29T15:10:34.567Z,619.00
2023-03-29T15:11:34.707Z,622.00
2023-03-29T15:12:34.642Z,620.00
2023-03-29T15:13:34.670Z,621.00
2023-03-29T15:14:34.705Z,623.00
2023-03-29T15:15:34.806Z,625.00
2023-03-29T15:16:34.854Z,625.00
2023-03-29T15:17:47.655Z,622.00
2023-03-29T15:18:35.951Z,618.00
2023-03-29T15:19:34.772Z,617.00
2023-03-29T15:20:34.744Z,617.00
2023-03-29T15:21:34.726Z,617.00
2023-03-29T15:22:34.698Z,611.00
2023-03-29T15:23:34.675Z,611.00
2023-03-29T15:24:34.649Z,612.00
2023-03-29T15:25:34.613Z,612.00
2023-03-29T15:26:34.643Z,609.00
2023-03-29T15:27:34.694Z,608.00
2023-03-29T15:28:34.761Z,608.00
2023-03-29T15:29:35.097Z,609.00
2023-03-29T15:30:34.812Z,609.00
2023-03-29T15:31:34.920Z,608.00
2023-03-29T15:32:34.907Z,611.00
2023-03-29T15:33:34.949Z,611.00
2023-03-29T15:34:34.816Z,609.00
2023-03-29T15:35:34.819Z,608.00
2023-03-29T15:36:34.758Z,605.00
2023-03-29T15:37:34.757Z,602.00
2023-03-29T15:38:43.235Z,604.00
2023-03-29T15:39:35.680Z,605.00
2023-03-29T15:40:34.701Z,603.00
2023-03-29T15:41:34.624Z,601.00
2023-03-29T15:42:34.603Z,602.00
2023-03-29T15:43:34.565Z,601.00
2023-03-29T15:44:34.548Z,600.00
2023-03-29T15:45:34.511Z,601.00
2023-03-29T15:46:34.512Z,603.00
2023-03-29T15:47:34.578Z,604.00
2023-03-29T15:48:34.537Z,602.00
2023-03-29T15:49:34.583Z,601.00
2023-03-29T15:50:34.604Z,596.00
2023-03-29T15:51:34.637Z,597.00
2023-03-29T15:52:34.679Z,597.00
2023-03-29T15:53:34.768Z,597.00
2023-03-29T15:54:34.743Z,599.00
2023-03-29T15:55:34.779Z,597.00
2023-03-29T15:56:34.821Z,594.00
2023-03-29T15:57:34.902Z,597.00
2023-03-29T15:58:34.921Z,595.00
2023-03-29T15:59:34.934Z,595.00
2023-03-29T16:00:34.993Z,595.00
2023-03-29T16:01:34.942Z,595.00
2023-03-29T16:02:34.956Z,596.00
2023-03-29T16:03:34.876Z,594.00
2023-03-29T16:04:34.855Z,592.00
2023-03-29T16:05:34.820Z,593.00
2023-03-29T16:06:34.794Z,596.00
2023-03-29T16:07:34.754Z,597.00
2023-03-29T16:08:34.734Z,597.00
2023-03-29T16:09:34.750Z,596.00
2023-03-29T16:10:34.786Z,597.00
2023-03-29T16:11:34.825Z,597.00
2023-03-29T16:12:34.857Z,599.00
2023-03-29T16:13:34.893Z,598.00
2023-03-29T16:14:34.926Z,597.00
2023-03-29T16:15:34.979Z,595.00
2023-03-29T16:16:35.042Z,594.00
2023-03-29T16:17:35.064Z,596.00
2023-03-29T16:18:34.955Z,597.00
2023-03-29T16:19:34.912Z,599.00
2023-03-29T16:20:34.880Z,598.00
2023-03-29T16:21:34.855Z,598.00
2023-03-29T16:22:34.824Z,596.00
2023-03-29T16:23:34.793Z,598.00
2023-03-29T16:24:34.766Z,599.00